تبوك, Saudi Arabia

11:23 PM AST on دسمبر 10, 2016 (GMT +0300)
Tabuk | | Change Station

Elev 2520 ft 28.38 °N, 36.60 °E | Updated 23 minutes ago

صافية
صافية
48 °F
Feels Like 48 °F
N
5
ريح متغير ريح from WNW

هذا اليوم
High -- | Low -- °F
--% Chance of Precip.
Yesterday
High -- | Low -- °F
Precip. -- في
الضغط 30.15 في
وضوح الرؤية -9999.0 أميال
سحابات
نقطة الندى 19 °F
الرطوبة 32%
Rainfall 0.00 في
عمق الثلج Not available.
7:15 AM 5:37 PM
الأحدب الأول, 86% visible
METAR OETB 102000Z 30004KT CAVOK 09/M07 Q1021 NOSIG
الضغط 30.15 في
وضوح الرؤية -9999.0 أميال
سحابات
نقطة الندى 19 °F
الرطوبة 32%
Rainfall 0.00 في
عمق الثلج Not available.
7:15 AM 5:37 PM
الأحدب الأول, 86% visible
METAR OETB 102000Z 30004KT CAVOK 09/M07 Q1021 NOSIG

10-Day Weather Forecast

No radar image for this location.
×

Almanac

علم الفلك

Dec. 10, 2016 Rise Set
Actual Time
Civil Twilight
Nautical Twilight
Astronomical Twilight
قمر
Length Of Visible Light
طول الیوم
Tomorrow will be .
, % of the Moon is Illuminated

Today's Extremes

Country Highs Country Lows

Community

WunderPhotos

Upload Photos

1,956,651 photos uploaded!

WunderBlog® & News

Nearby

جودة الهواء

  جودة الهواء AQ Index Pollutant
Not available.

عمق الثلج

Station Depth Elevation

Earthquake Activity

City Distance Mag. Time & Date
Minimum magnitude displayed is 2.5.

Coastal Water Temperatures

مكان درجات الحرارة

Stations

Nearby Weather Stations

Station Location الحرارة رياح باردة نقطة الندى الرطوبة ريح Precip. Elev تحديث Type